Taihei Maru — JG5546 — position and weather

sailwx.info

Track history (hours):
 
Tides and Currents Weather Stations Pressure Air Temp Water Temp Dewpoint Dewpoint Depression Visibility Wind Speed Wind Dir Waves Ship Positions

Taihei Maru

Last reported at 2018-Jun-18 03:30 UTC. Time now 2018-Jun-18 03:37 UTC.
Position N 35°30' E 139°51'.

Length 62 m; draft 4.1 m.

Type: Ship. MMSI: 431301369.

Date/timePositionNaut miles runAvg speedWind from/ knotsBaromVisibWave heightAir tempDewpointWater temp
2018-Jun-18 03:30N 35°30' E 139°51'0 0.0
2018-Jun-18 03:00N 35°30' E 139°51'3 6.5
2018-Jun-18 02:30N 35°30' E 139°55'4 1.2
2018-Jun-17 22:47N 35°30' E 139°60'0 0.2
2018-Jun-17 22:24N 35°30' E 139°60'1 2.3
2018-Jun-17 21:59N 35°30' E 139°59'3 0.3
2018-Jun-17 10:54N 35°29' E 139°55'411.4
2018-Jun-17 10:30N 35°27' E 139°50'612.1
2018-Jun-17 10:00N 35°22' E 139°46'611.1
2018-Jun-17 09:30N 35°17' E 139°46'24810.6
2018-Jun-16 10:12N 33°50' E 135°04'211.5
2018-Jun-16 10:00N 33°51' E 135°02'611.5
2018-Jun-16 09:30N 33°56' E 134°57'612.0
2018-Jun-16 08:59N 34°00' E 134°53'612.1
2018-Jun-16 08:30N 34°05' E 134°48'712.6
2018-Jun-16 07:56N 34°10' E 134°42'1212.5
2018-Jun-16 06:57N 34°18' E 134°31'612.3
2018-Jun-16 06:30N 34°20' E 134°24'  
Track history (hours):
 
Tides and Currents Weather Stations Pressure Air Temp Water Temp Dewpoint Dewpoint Depression Visibility Wind Speed Wind Dir Waves Ship Positions

Taihei Maru

Last reported at 2018-Jun-18 03:30 UTC. Time now 2018-Jun-18 03:37 UTC.
Position N 35°30' E 139°51'.

Length 62 m; draft 4.1 m.

Type: Ship. MMSI: 431301369.

Date/timePositionNaut miles runAvg speedWind from/ knotsBaromVisibWave heightAir tempDewpointWater temp
2018-Jun-18 03:30N 35°30' E 139°51'0 0.0
2018-Jun-18 03:00N 35°30' E 139°51'3 6.5
2018-Jun-18 02:30N 35°30' E 139°55'4 1.2
2018-Jun-17 22:47N 35°30' E 139°60'0 0.2
2018-Jun-17 22:24N 35°30' E 139°60'1 2.3
2018-Jun-17 21:59N 35°30' E 139°59'3 0.3
2018-Jun-17 10:54N 35°29' E 139°55'411.4
2018-Jun-17 10:30N 35°27' E 139°50'612.1
2018-Jun-17 10:00N 35°22' E 139°46'611.1
2018-Jun-17 09:30N 35°17' E 139°46'24810.6
2018-Jun-16 10:12N 33°50' E 135°04'211.5
2018-Jun-16 10:00N 33°51' E 135°02'611.5
2018-Jun-16 09:30N 33°56' E 134°57'612.0
2018-Jun-16 08:59N 34°00' E 134°53'612.1
2018-Jun-16 08:30N 34°05' E 134°48'712.6
2018-Jun-16 07:56N 34°10' E 134°42'1212.5
2018-Jun-16 06:57N 34°18' E 134°31'612.3
2018-Jun-16 06:30N 34°20' E 134°24'  

Dump ship's entire track history